• Join FlightAware (Why Join?)
  • Login
  • US Flag 
03:35PM EDT


 

Airport Tracker/Info


-or-


 

Live Flight TrackerFlight Track Log ✈ AIE352 ✈ 20-Aug-2013 ✈ CYOW - CYFB

Flight Track Log - Related Links

Times and Time Zones

All times are in EDT time to prevent confusion due to time zone crossing. See the AIE352 flight status page for this flight to view local times or setup timezone preferences in your user account.

Time Position Orientation Groundspeed Altitude Reporting Facility
EDT Latitude Longitude Course Direction KTS MPH feet Rate Location/Type
01:32PM 45.3000 -75.6667 11° North 10 12 400  Level Montreal Center
01:37PM 45.3000 -75.6667 11° North 140 161 500 300 Climbing Montreal Center
01:38PM 45.2667 -75.7333 235° Southwest 200 230 2,200 1,800 Climbing Montreal Center
01:39PM 45.2333 -75.8000 235° Southwest 240 276 4,100 2,280 Climbing Montreal Center
01:40PM 45.2500 -75.9000 283° West 250 288 6,800 2,400 Climbing Montreal Center
01:41PM 45.3167 -75.9167 350° North 280 322 8,900 1,920 Climbing Montreal Center
01:42PM 46.0228 -75.9893 11° North  Level FlightAware Approximate
01:42PM 45.4167 -75.9500 347° North 300 345 10,700  Level Montreal Center
01:43PM 45.5167 -75.9500 360° North 340 391 11,800 1,380 Climbing Montreal Center
01:44PM 45.6000 -75.9667 352° North 370 426 13,500 1,680 Climbing Montreal Center
01:45PM 45.7167 -76.0000 349° North 380 437 15,200 1,800 Climbing Montreal Center
01:46PM 45.8167 -76.0167 353° North 380 437 17,100 1,740 Climbing Montreal Center
01:47PM 45.9333 -76.0167 360° North 380 437 18,700 1,380 Climbing Montreal Center
01:48PM 46.0333 -76.0000 North 400 460 19,900 1,200 Climbing Montreal Center
01:49PM 46.1500 -75.9667 11° North 410 472 21,100 1,200 Climbing Montreal Center
01:50PM 46.2667 -75.9500 North 420 483 22,400 1,200 Climbing Montreal Center
01:51PM 46.3667 -75.9167 13° North 420 483 23,600 1,200 Climbing Montreal Center
01:52PM 46.5000 -75.8667 14° North 430 495 24,800 1,080 Climbing Montreal Center
01:53PM 46.6000 -75.8500 North 430 495 25,800 1,200 Climbing Montreal Center
01:54PM 46.7167 -75.8167 11° North 430 495 27,200 1,080 Climbing Montreal Center
01:55PM 46.8333 -75.8000 North 420 483 28,000 900 Climbing Montreal Center
01:56PM 46.9500 -75.7500 16° North 420 483 29,000 900 Climbing Montreal Center
01:57PM 47.0667 -75.7167 11° North 420 483 29,800 900 Climbing Montreal Center
01:58PM 47.1833 -75.7000 North 420 483 30,900 600 Climbing Montreal Center
01:59PM 47.3000 -75.6667 11° North 420 483 31,000  Climbing Montreal Center
02:00PM 47.4167 -75.6500 North 410 472 31,000  Level Montreal Center
02:01PM 47.5333 -75.6000 16° North 410 472 31,000  Level Montreal Center
02:02PM 47.6333 -75.5667 13° North 400 460 31,000  Level Montreal Center
02:03PM 47.7333 -75.5500 North 410 472 31,000  Level Montreal Center
02:04PM 47.8500 -75.5167 11° North 400 460 31,000  Level Montreal Center
02:05PM 47.9667 -75.4833 11° North 410 472 31,000  Level Montreal Center
02:06PM 48.0833 -75.4333 16° North 410 472 31,000  Level Montreal Center
02:07PM 48.2000 -75.4167 North 410 472 31,000  Level Montreal Center
02:08PM 48.3167 -75.3833 11° North 410 472 31,000  Level Montreal Center
02:09PM 48.4333 -75.3667 North 400 460 31,000  Level Montreal Center
02:10PM 48.5333 -75.3333 12° North 400 460 31,000  Level Montreal Center
02:11PM 48.6500 -75.3000 11° North 400 460 31,000  Level Montreal Center
02:12PM 48.7500 -75.2833 North 400 460 31,000  Level Montreal Center
02:13PM 48.8667 -75.2333 16° North 400 460 31,000  Level Montreal Center
02:14PM 48.9667 -75.2000 12° North 400 460 31,000  Level Montreal Center
02:15PM 49.0833 -75.1667 11° North 410 472 31,000  Level Montreal Center
02:16PM 49.2000 -75.1500 North 410 472 31,000  Level Montreal Center
02:17PM 49.3167 -75.1167 11° North 410 472 31,000  Level Montreal Center
02:18PM 49.4333 -75.0667 16° North 420 483 31,000  Level Montreal Center
02:19PM 49.5500 -75.0333 11° North 420 483 31,000  Level Montreal Center
02:20PM 49.6500 -75.0000 12° North 420 483 31,000  Level Montreal Center
02:21PM 49.7667 -74.9833 North 420 483 31,000  Level Montreal Center
02:22PM 49.8833 -74.9167 20° North 420 483 31,000  Level Montreal Center
02:23PM 50.0000 -74.9000 North 420 483 31,000  Level Montreal Center
02:24PM 50.1167 -74.8667 10° North 420 483 31,000  Level Montreal Center
02:25PM 50.2333 -74.8333 10° North 420 483 31,000  Level Montreal Center
02:26PM 50.3500 -74.8000 10° North 420 483 31,000  Level Montreal Center
02:27PM 50.4667 -74.7500 15° North 420 483 31,000  Level Montreal Center
02:28PM 50.5833 -74.7167 10° North 420 483 31,000  Level Montreal Center
02:29PM 50.7000 -74.6833 10° North 420 483 31,000  Level Montreal Center
02:30PM 50.8167 -74.6667 North 420 483 31,000  Level Montreal Center
02:31PM 50.9333 -74.6333 10° North 420 483 31,000  Level Montreal Center
02:32PM 51.0667 -74.5667 17° North 420 483 31,000  Level Montreal Center
02:33PM 51.1667 -74.5500 North 420 483 31,000  Level Montreal Center
02:34PM 51.2833 -74.5167 10° North 420 483 31,000  Level Montreal Center
02:35PM 51.4000 -74.4833 10° North 420 483 31,000  Level Montreal Center
02:36PM 51.5167 -74.4167 20° North 420 483 31,000  Level Montreal Center
02:37PM 51.6333 -74.4000 North 420 483 31,000  Level Montreal Center
02:38PM 51.7500 -74.3667 10° North 420 483 31,000  Level Montreal Center
02:39PM 51.8667 -74.3333 10° North 420 483 31,000  Level Montreal Center
02:40PM 51.9833 -74.2667 19° North 420 483 31,000  Level Montreal Center
02:41PM 52.0833 -74.2333 12° North 420 483 31,000  Level Montreal Center
02:42PM 52.2000 -74.2000 10° North 420 483 31,000  Level Montreal Center
02:43PM 52.3167 -74.1667 10° North 420 483 31,000  Level Montreal Center
02:44PM 52.4333 -74.1333 10° North 420 483 31,000  Level Montreal Center
02:45PM 52.5500 -74.1167 North 410 472 31,000  Level Montreal Center
02:46PM 52.6500 -74.0500 22° Northeast 410 472 31,000  Level Montreal Center
02:47PM 52.7667 -74.0167 10° North 410 472 31,000  Level Montreal Center
02:48PM 52.8833 -73.9833 10° North 410 472 31,000  Level Montreal Center
02:49PM 53.0000 -73.9500 10° North 410 472 31,000 60 Level Montreal Center
02:50PM 53.1000 -73.9167 11° North 410 472 31,200 720 Climbing Montreal Center
02:51PM 53.2167 -73.8500 19° North 400 460 32,500 900 Climbing Montreal Center
02:52PM 53.3167 -73.8167 11° North 390 449 33,000 240 Climbing Montreal Center
02:53PM 53.4333 -73.7833 10° North 400 460 33,000  Level Montreal Center
02:54PM 53.5333 -73.7500 11° North 400 460 33,000  Level Montreal Center
02:55PM 53.6500 -73.7167 10° North 400 460 33,000  Level Montreal Center
02:56PM 53.7667 -73.6833 10° North 400 460 33,000  Level Montreal Center
02:57PM 53.8667 -73.6167 21° North 410 472 33,000  Level Montreal Center
02:58PM 53.9833 -73.5833 10° North 410 472 33,000  Level Montreal Center
02:59PM 54.1000 -73.5500 10° North 410 472 33,000  Level Montreal Center
03:00PM 54.2167 -73.4833 18° North 420 483 33,000  Level Montreal Center
03:01PM 54.3333 -73.4500 North 420 483 33,000  Level Montreal Center
03:02PM 54.4500 -73.4167 North 420 483 33,000  Level Montreal Center
03:03PM 54.5500 -73.3833 11° North 420 483 33,000  Level Montreal Center
03:04PM 54.6667 -73.3167 18° North 410 472 33,000  Level Montreal Center
03:05PM 54.7833 -73.2833 North 420 483 33,000  Level Montreal Center
03:06PM 54.9000 -73.2167 18° North 420 483 33,000  Level Montreal Center
03:07PM 55.0167 -73.1667 14° North 420 483 33,000  Level Montreal Center
03:08PM 55.1500 -73.1333 North 420 483 33,000  Level Montreal Center
03:09PM 55.2333 -73.0667 25° Northeast 420 483 33,000  Level Montreal Center
03:10PM 55.3500 -73.0333 North 420 483 33,000  Level Montreal Center
03:11PM 55.4833 -73.0000 North 420 483 33,000  Level Montreal Center
03:12PM 55.5833 -72.9167 25° Northeast 420 483 33,000  Level Montreal Center
03:13PM 55.7333 -72.8833 North 430 495 33,000  Level Montreal Center
03:14PM 55.8333 -72.8500 11° North 430 495 33,000  Level Montreal Center
03:15PM 55.9333 -72.7833 20° North 430 495 33,000  Level Montreal Center
03:16PM 56.0500 -72.7333 13° North 420 483 33,000  Level Montreal Center
03:17PM 56.1833 -72.7000 North 430 495 33,000  Level Montreal Center
03:18PM 56.2833 -72.6333 20° North 420 483 33,000  Level Montreal Center
03:19PM 56.4000 -72.5833 13° North 430 495 33,000  Level Montreal Center
03:20PM 56.5000 -72.5500 10° North 400 460 33,000  Level Montreal Center
03:21PM 56.6167 -72.5000 13° North 390 449 33,000  Level Montreal Center
03:22PM 56.7167 -72.4667 10° North 380 437 33,000  Level Montreal Center
03:23PM 56.8167 -72.4000 20° North 390 449 33,000  Level Montreal Center
03:24PM 56.9333 -72.3500 13° North 410 472 33,000  Level Montreal Center
03:25PM 57.0500 -72.2833 17° North 420 483 33,000  Level Montreal Center
03:26PM 57.1667 -72.2333 13° North 440 506 33,000  Level Montreal Center
03:27PM 57.3000 -72.2000 North 440 506 33,000  Level Montreal Center
03:28PM 57.4167 -72.1167 21° North 440 506 33,000  Level Montreal Center
03:29PM 57.5333 -72.0667 13° North 440 506 33,000  Level Montreal Center
03:30PM 57.6500 -72.0333 North 450 518 33,000  Level Montreal Center
03:31PM 57.7833 -71.9500 18° North 450 518 33,000  Level Montreal Center
03:32PM 57.9000 -71.9167 North 450 518 33,000  Level Montreal Center
03:33PM 58.0167 -71.8333 21° North 450 518 33,000  Level Montreal Center
03:34PM 58.1500 -71.7833 11° North 460 529 33,000  Level Montreal Center
03:35PM 58.2833 -71.7000 18° North 470 541 33,000  Level Montreal Center
03:36PM 58.4000 -71.6667 North 470 541 33,000  Level Montreal Center
03:37PM 58.5333 -71.5833 18° North 460 529 33,000  Level Montreal Center
03:38PM 58.6667 -71.5333 11° North 480 552 33,000  Level Montreal Center
03:39PM 58.7833 -71.4500 20° North 460 529 33,000  Level Montreal Center
03:40PM 58.9333 -71.4000 10° North 480 552 33,000  Level Montreal Center
03:41PM 59.0500 -71.3167 20° North 480 552 33,000  Level Montreal Center
03:42PM 59.1833 -71.2667 11° North 470 541 33,000  Level Montreal Center
03:43PM 59.3167 -71.1833 18° North 470 541 33,000  Level Montreal Center
03:44PM 59.4333 -71.1333 12° North 460 529 33,000  Level Montreal Center
03:45PM 59.5500 -71.0500 20° North 460 529 33,000  Level Montreal Center
03:46PM 59.6667 -71.0000 12° North 460 529 33,000  Level Montreal Center
03:47PM 59.7833 -70.9500 12° North 460 529 33,000  Level Montreal Center
03:48PM 59.9167 -70.8667 17° North 460 529 33,000  Level Montreal Center
03:49PM 60.0333 -70.8167 12° North 460 529 33,000  Level Montreal Center
03:50PM 60.1667 -70.7333 17° North 460 529 33,000  Level Montreal Center
03:51PM 60.2833 -70.6667 16° North 470 541 33,000  Level Montreal Center
03:52PM 60.4167 -70.5833 17° North 460 529 33,000  Level Montreal Center
03:53PM 60.5333 -70.5333 12° North 460 529 33,000  Level Montreal Center
03:54PM 60.6667 -70.4833 10° North 450 518 33,000  Level Montreal Center
03:55PM 60.8000 -70.3833 20° North 450 518 33,000  Level Montreal Center
03:56PM 60.9000 -70.3000 22° Northeast 440 506 33,000  Level Montreal Center
03:57PM 61.0167 -70.2500 12° North 440 506 33,000  Level Montreal Center
03:58PM 61.1333 -70.1833 15° North 440 506 33,000  Level Montreal Center
03:59PM 61.2500 -70.1000 19° North 430 495 33,000  Level Montreal Center
04:00PM 61.3667 -70.0333 15° North 440 506 33,000  Level Montreal Center
04:01PM 61.4833 -69.9833 12° North 430 495 33,000  Level Montreal Center
04:02PM 61.6167 -69.8833 20° North 430 495 33,000  Level Montreal Center
04:03PM 61.7167 -69.8333 13° North 430 495 33,000  Level Montreal Center
04:04PM 61.8333 -69.7833 11° North 430 495 33,000  Level Montreal Center
04:05PM 61.9500 -69.6833 22° Northeast 440 506 33,000  Level Montreal Center
04:06PM 62.0667 -69.6167 15° North 440 506 33,000  Level Montreal Center
04:07PM 62.1833 -69.5667 11° North 440 506 33,000 -1,380 Level Montreal Center
04:08PM 62.3000 -69.4667 22° Northeast 440 506 30,300 -2,700 Descending Montreal Center
04:09PM 62.4167 -69.4000 15° North 430 495 27,700 -2,820 Descending Montreal Center
04:10PM 62.5333 -69.3167 18° North 440 506 24,700 -2,820 Descending Montreal Center
04:11PM 62.6500 -69.2500 15° North 440 506 22,100 -2,580 Descending Montreal Center
04:12PM 62.7667 -69.1833 15° North 430 495 19,600 -2,700 Descending Montreal Center
04:13PM 62.8667 -69.0833 25° Northeast 420 483 16,800 -2,640 Descending Montreal Center
04:14PM 62.9833 -69.0167 15° North 410 472 14,400 -2,340 Descending Montreal Center
04:15PM 63.0833 -68.9667 13° North 400 460 12,200 -1,980 Descending Montreal Center
04:16PM 63.2000 -68.9000 14° North 390 449 10,500 -1,020 Descending Montreal Center
04:17PM 63.2833 -68.8500 15° North 340 391 10,200 -960 Descending Montreal Center
04:18PM 63.3667 -68.7833 20° North 310 357 8,600 -1,560 Descending Montreal Center
04:19PM 63.4333 -68.7333 19° North 300 345 7,100 -1,380 Descending Montreal Center
04:20PM 63.5167 -68.6667 20° North 290 334 5,900 -1,200 Descending Montreal Center
04:21PM 63.5667 -68.5500 46° Northeast 260 299 4,800 -780 Descending Montreal Center
04:22PM 63.6000 -68.4333 57° Northeast 230 265 4,400 -600 Descending Montreal Center
04:23PM 63.6167 -68.3500 66° East 200 230 3,700 -900 Descending Montreal Center
04:24PM 63.6667 -68.3000 24° Northeast 190 219 2,700 -1,020 Descending Montreal Center
04:25PM 63.7167 -68.3500 336° Northwest 170 196 1,700 -900 Descending Montreal Center
04:26PM 63.7500 -68.4333 312° West 160 184 900 -840 Descending Montreal Center
04:27PM 63.7833 -68.5000 319° Northwest 160 184 100 -360 Descending Montreal Center
04:28PM 63.7833 -68.5000 319° Northwest 40 46 200 60 Climbing Montreal Center